sensor_id;sensor_type;location;lat;lon;timestamp;P1;durP1;ratioP1;P2;durP2;ratioP2
56343;SDS011;42245;42.058;24.700;2023-07-22T00:01:12;16.75;;;9.25;;
56343;SDS011;42245;42.058;24.700;2023-07-22T00:03:38;13.57;;;9.10;;
56343;SDS011;42245;42.058;24.700;2023-07-22T00:08:33;10.52;;;8.05;;
56343;SDS011;42245;42.058;24.700;2023-07-22T00:10:58;16.02;;;8.68;;
56343;SDS011;42245;42.058;24.700;2023-07-22T00:13:24;14.40;;;9.10;;
56343;SDS011;42245;42.058;24.700;2023-07-22T00:15:52;11.93;;;8.07;;
56343;SDS011;42245;42.058;24.700;2023-07-22T00:18:18;14.00;;;8.80;;
56343;SDS011;42245;42.058;24.700;2023-07-22T00:20:43;15.43;;;8.60;;
56343;SDS011;42245;42.058;24.700;2023-07-22T00:23:09;12.88;;;8.13;;
56343;SDS011;42245;42.058;24.700;2023-07-22T00:25:35;11.52;;;8.55;;
56343;SDS011;42245;42.058;24.700;2023-07-22T00:28:01;13.65;;;8.35;;
56343;SDS011;42245;42.058;24.700;2023-07-22T00:30:26;15.18;;;8.80;;
56343;SDS011;42245;42.058;24.700;2023-07-22T00:32:53;17.58;;;7.97;;
56343;SDS011;42245;42.058;24.700;2023-07-22T00:35:19;15.50;;;8.50;;
56343;SDS011;42245;42.058;24.700;2023-07-22T00:37:44;11.80;;;8.32;;
56343;SDS011;42245;42.058;24.700;2023-07-22T00:40:10;14.07;;;8.43;;
56343;SDS011;42245;42.058;24.700;2023-07-22T00:42:39;10.00;;;7.93;;
56343;SDS011;42245;42.058;24.700;2023-07-22T00:45:05;11.80;;;7.95;;
56343;SDS011;42245;42.058;24.700;2023-07-22T00:47:32;12.82;;;8.02;;
56343;SDS011;42245;42.058;24.700;2023-07-22T00:49:59;13.45;;;8.02;;
56343;SDS011;42245;42.058;24.700;2023-07-22T00:52:25;13.60;;;7.80;;
56343;SDS011;42245;42.058;24.700;2023-07-22T00:54:50;12.43;;;7.80;;
56343;SDS011;42245;42.058;24.700;2023-07-22T00:57:15;10.45;;;7.97;;
56343;SDS011;42245;42.058;24.700;2023-07-22T00:59:41;9.82;;;8.02;;
56343;SDS011;42245;42.058;24.700;2023-07-22T01:02:06;12.43;;;7.55;;
56343;SDS011;42245;42.058;24.700;2023-07-22T01:04:32;13.23;;;8.23;;
56343;SDS011;42245;42.058;24.700;2023-07-22T01:06:58;10.75;;;7.78;;
56343;SDS011;42245;42.058;24.700;2023-07-22T01:09:24;12.73;;;8.20;;
56343;SDS011;42245;42.058;24.700;2023-07-22T01:11:49;14.35;;;7.85;;
56343;SDS011;42245;42.058;24.700;2023-07-22T01:14:15;15.23;;;8.18;;
56343;SDS011;42245;42.058;24.700;2023-07-22T01:16:40;11.98;;;8.32;;
56343;SDS011;42245;42.058;24.700;2023-07-22T01:19:05;12.23;;;8.35;;
56343;SDS011;42245;42.058;24.700;2023-07-22T01:21:33;13.38;;;8.43;;
56343;SDS011;42245;42.058;24.700;2023-07-22T01:23:59;17.67;;;8.10;;
56343;SDS011;42245;42.058;24.700;2023-07-22T01:26:24;16.10;;;8.23;;
56343;SDS011;42245;42.058;24.700;2023-07-22T01:28:50;16.73;;;8.55;;
56343;SDS011;42245;42.058;24.700;2023-07-22T01:31:15;13.30;;;8.73;;
56343;SDS011;42245;42.058;24.700;2023-07-22T01:33:41;18.65;;;8.80;;
56343;SDS011;42245;42.058;24.700;2023-07-22T01:36:06;20.88;;;9.00;;
56343;SDS011;42245;42.058;24.700;2023-07-22T01:38:32;13.75;;;8.82;;
56343;SDS011;42245;42.058;24.700;2023-07-22T01:40:58;22.05;;;9.43;;
56343;SDS011;42245;42.058;24.700;2023-07-22T01:43:24;16.52;;;8.25;;
56343;SDS011;42245;42.058;24.700;2023-07-22T01:45:49;16.85;;;8.88;;
56343;SDS011;42245;42.058;24.700;2023-07-22T01:48:15;16.95;;;9.00;;
56343;SDS011;42245;42.058;24.700;2023-07-22T01:50:41;16.42;;;8.55;;
56343;SDS011;42245;42.058;24.700;2023-07-22T01:53:06;25.77;;;9.98;;
56343;SDS011;42245;42.058;24.700;2023-07-22T01:55:32;13.43;;;9.18;;
56343;SDS011;42245;42.058;24.700;2023-07-22T01:57:58;15.27;;;8.60;;
56343;SDS011;42245;42.058;24.700;2023-07-22T02:00:24;26.20;;;9.40;;
56343;SDS011;42245;42.058;24.700;2023-07-22T02:02:49;12.23;;;8.90;;
56343;SDS011;42245;42.058;24.700;2023-07-22T02:05:15;16.83;;;9.13;;
56343;SDS011;42245;42.058;24.700;2023-07-22T02:07:40;17.23;;;8.95;;
56343;SDS011;42245;42.058;24.700;2023-07-22T02:10:06;13.50;;;9.32;;
56343;SDS011;42245;42.058;24.700;2023-07-22T02:12:31;15.80;;;9.10;;
56343;SDS011;42245;42.058;24.700;2023-07-22T02:14:57;14.15;;;8.55;;
56343;SDS011;42245;42.058;24.700;2023-07-22T02:17:22;17.45;;;9.35;;
56343;SDS011;42245;42.058;24.700;2023-07-22T02:19:48;15.02;;;9.05;;
56343;SDS011;42245;42.058;24.700;2023-07-22T02:22:14;11.23;;;8.20;;
56343;SDS011;42245;42.058;24.700;2023-07-22T02:24:40;15.55;;;8.57;;
56343;SDS011;42245;42.058;24.700;2023-07-22T02:27:05;10.65;;;8.55;;
56343;SDS011;42245;42.058;24.700;2023-07-22T02:29:31;12.55;;;8.75;;
56343;SDS011;42245;42.058;24.700;2023-07-22T02:31:57;17.48;;;9.18;;
56343;SDS011;42245;42.058;24.700;2023-07-22T02:34:22;14.27;;;9.00;;
56343;SDS011;42245;42.058;24.700;2023-07-22T02:36:48;14.48;;;9.48;;
56343;SDS011;42245;42.058;24.700;2023-07-22T02:39:13;13.60;;;8.90;;
56343;SDS011;42245;42.058;24.700;2023-07-22T02:41:39;14.90;;;9.57;;
56343;SDS011;42245;42.058;24.700;2023-07-22T02:44:04;13.55;;;9.55;;
56343;SDS011;42245;42.058;24.700;2023-07-22T02:46:30;32.42;;;9.68;;
56343;SDS011;42245;42.058;24.700;2023-07-22T02:48:56;14.60;;;9.32;;
56343;SDS011;42245;42.058;24.700;2023-07-22T02:51:22;13.90;;;9.00;;
56343;SDS011;42245;42.058;24.700;2023-07-22T02:53:47;15.90;;;9.48;;
56343;SDS011;42245;42.058;24.700;2023-07-22T02:56:13;15.63;;;10.00;;
56343;SDS011;42245;42.058;24.700;2023-07-22T02:58:38;16.35;;;9.40;;
56343;SDS011;42245;42.058;24.700;2023-07-22T03:01:04;17.58;;;9.50;;
56343;SDS011;42245;42.058;24.700;2023-07-22T03:03:30;15.07;;;8.85;;
56343;SDS011;42245;42.058;24.700;2023-07-22T03:05:58;15.30;;;9.45;;
56343;SDS011;42245;42.058;24.700;2023-07-22T03:08:24;22.85;;;10.05;;
56343;SDS011;42245;42.058;24.700;2023-07-22T03:10:50;17.80;;;9.55;;
56343;SDS011;42245;42.058;24.700;2023-07-22T03:13:15;15.57;;;8.75;;
56343;SDS011;42245;42.058;24.700;2023-07-22T03:15:41;11.80;;;9.18;;
56343;SDS011;42245;42.058;24.700;2023-07-22T03:18:06;17.58;;;9.55;;
56343;SDS011;42245;42.058;24.700;2023-07-22T03:20:32;11.88;;;8.55;;
56343;SDS011;42245;42.058;24.700;2023-07-22T03:22:57;11.80;;;8.82;;
56343;SDS011;42245;42.058;24.700;2023-07-22T03:25:23;15.00;;;9.27;;
56343;SDS011;42245;42.058;24.700;2023-07-22T03:27:48;16.90;;;9.35;;
56343;SDS011;42245;42.058;24.700;2023-07-22T03:30:14;15.23;;;9.00;;
56343;SDS011;42245;42.058;24.700;2023-07-22T03:32:44;15.30;;;9.20;;
56343;SDS011;42245;42.058;24.700;2023-07-22T03:35:12;16.63;;;9.23;;
56343;SDS011;42245;42.058;24.700;2023-07-22T03:37:38;14.98;;;8.98;;
56343;SDS011;42245;42.058;24.700;2023-07-22T03:40:04;13.55;;;9.00;;
56343;SDS011;42245;42.058;24.700;2023-07-22T03:42:51;14.07;;;8.80;;
56343;SDS011;42245;42.058;24.700;2023-07-22T03:45:20;19.48;;;9.27;;
56343;SDS011;42245;42.058;24.700;2023-07-22T03:47:50;17.67;;;9.02;;
56343;SDS011;42245;42.058;24.700;2023-07-22T03:50:17;16.05;;;10.13;;
56343;SDS011;42245;42.058;24.700;2023-07-22T03:52:42;12.23;;;9.45;;
56343;SDS011;42245;42.058;24.700;2023-07-22T03:55:08;14.02;;;10.13;;
56343;SDS011;42245;42.058;24.700;2023-07-22T03:57:34;15.65;;;9.10;;
56343;SDS011;42245;42.058;24.700;2023-07-22T03:59:59;13.48;;;9.20;;
56343;SDS011;42245;42.058;24.700;2023-07-22T04:02:25;17.77;;;8.93;;
56343;SDS011;42245;42.058;24.700;2023-07-22T04:04:52;13.88;;;9.07;;
56343;SDS011;42245;42.058;24.700;2023-07-22T04:07:18;12.10;;;8.73;;
56343;SDS011;42245;42.058;24.700;2023-07-22T04:09:44;24.40;;;9.25;;
56343;SDS011;42245;42.058;24.700;2023-07-22T04:12:10;16.48;;;9.23;;
56343;SDS011;42245;42.058;24.700;2023-07-22T04:14:35;13.40;;;8.82;;
56343;SDS011;42245;42.058;24.700;2023-07-22T04:17:00;16.80;;;8.93;;
56343;SDS011;42245;42.058;24.700;2023-07-22T04:19:26;15.00;;;8.55;;
56343;SDS011;42245;42.058;24.700;2023-07-22T04:21:51;11.63;;;8.48;;
56343;SDS011;42245;42.058;24.700;2023-07-22T04:24:17;16.40;;;8.65;;
56343;SDS011;42245;42.058;24.700;2023-07-22T04:26:42;15.48;;;9.00;;
56343;SDS011;42245;42.058;24.700;2023-07-22T04:29:08;11.82;;;8.57;;
56343;SDS011;42245;42.058;24.700;2023-07-22T04:31:34;13.20;;;8.90;;
56343;SDS011;42245;42.058;24.700;2023-07-22T04:34:00;13.25;;;8.70;;
56343;SDS011;42245;42.058;24.700;2023-07-22T04:36:25;17.40;;;8.88;;
56343;SDS011;42245;42.058;24.700;2023-07-22T04:38:50;14.00;;;8.30;;
56343;SDS011;42245;42.058;24.700;2023-07-22T04:41:16;18.65;;;8.05;;
56343;SDS011;42245;42.058;24.700;2023-07-22T04:43:41;12.27;;;8.18;;
56343;SDS011;42245;42.058;24.700;2023-07-22T04:46:06;17.98;;;9.52;;
56343;SDS011;42245;42.058;24.700;2023-07-22T04:48:33;14.90;;;8.70;;
56343;SDS011;42245;42.058;24.700;2023-07-22T04:50:59;15.70;;;8.13;;
56343;SDS011;42245;42.058;24.700;2023-07-22T04:53:24;11.20;;;7.97;;
56343;SDS011;42245;42.058;24.700;2023-07-22T04:55:49;13.82;;;8.18;;
56343;SDS011;42245;42.058;24.700;2023-07-22T04:58:15;14.05;;;7.93;;
56343;SDS011;42245;42.058;24.700;2023-07-22T05:00:40;14.63;;;8.27;;
56343;SDS011;42245;42.058;24.700;2023-07-22T05:03:07;10.48;;;7.90;;
56343;SDS011;42245;42.058;24.700;2023-07-22T05:05:33;11.98;;;8.05;;
56343;SDS011;42245;42.058;24.700;2023-07-22T05:07:58;23.08;;;8.75;;
56343;SDS011;42245;42.058;24.700;2023-07-22T05:10:24;13.20;;;7.88;;
56343;SDS011;42245;42.058;24.700;2023-07-22T05:12:49;16.13;;;8.10;;
56343;SDS011;42245;42.058;24.700;2023-07-22T05:15:14;9.23;;;8.07;;
56343;SDS011;42245;42.058;24.700;2023-07-22T05:17:40;15.48;;;8.18;;
56343;SDS011;42245;42.058;24.700;2023-07-22T05:20:06;12.45;;;8.10;;
56343;SDS011;42245;42.058;24.700;2023-07-22T05:22:35;18.92;;;8.80;;
56343;SDS011;42245;42.058;24.700;2023-07-22T05:25:01;15.95;;;8.00;;
56343;SDS011;42245;42.058;24.700;2023-07-22T05:27:26;17.75;;;8.23;;
56343;SDS011;42245;42.058;24.700;2023-07-22T05:29:52;17.23;;;7.88;;
56343;SDS011;42245;42.058;24.700;2023-07-22T05:32:17;11.43;;;8.57;;
56343;SDS011;42245;42.058;24.700;2023-07-22T05:34:42;11.88;;;8.10;;
56343;SDS011;42245;42.058;24.700;2023-07-22T05:37:08;15.80;;;8.35;;
56343;SDS011;42245;42.058;24.700;2023-07-22T05:39:33;19.77;;;8.15;;
56343;SDS011;42245;42.058;24.700;2023-07-22T05:41:59;11.57;;;7.05;;
56343;SDS011;42245;42.058;24.700;2023-07-22T05:44:24;16.42;;;7.88;;
56343;SDS011;42245;42.058;24.700;2023-07-22T05:46:50;16.10;;;7.60;;
56343;SDS011;42245;42.058;24.700;2023-07-22T05:49:15;13.35;;;7.35;;
56343;SDS011;42245;42.058;24.700;2023-07-22T05:51:40;15.60;;;7.88;;
56343;SDS011;42245;42.058;24.700;2023-07-22T05:54:06;11.00;;;7.22;;
56343;SDS011;42245;42.058;24.700;2023-07-22T05:56:31;14.63;;;7.18;;
56343;SDS011;42245;42.058;24.700;2023-07-22T05:58:56;13.32;;;7.40;;
56343;SDS011;42245;42.058;24.700;2023-07-22T06:01:23;13.85;;;8.02;;
56343;SDS011;42245;42.058;24.700;2023-07-22T06:03:49;18.63;;;7.40;;
56343;SDS011;42245;42.058;24.700;2023-07-22T06:06:15;13.45;;;7.95;;
56343;SDS011;42245;42.058;24.700;2023-07-22T06:08:40;15.35;;;7.93;;
56343;SDS011;42245;42.058;24.700;2023-07-22T06:11:05;14.32;;;7.53;;
56343;SDS011;42245;42.058;24.700;2023-07-22T06:13:31;14.15;;;7.60;;
56343;SDS011;42245;42.058;24.700;2023-07-22T06:15:56;12.13;;;7.25;;
56343;SDS011;42245;42.058;24.700;2023-07-22T06:18:21;10.00;;;6.78;;
56343;SDS011;42245;42.058;24.700;2023-07-22T06:20:47;12.63;;;7.40;;
56343;SDS011;42245;42.058;24.700;2023-07-22T06:23:13;11.50;;;6.78;;
56343;SDS011;42245;42.058;24.700;2023-07-22T06:25:39;12.27;;;7.18;;
56343;SDS011;42245;42.058;24.700;2023-07-22T06:28:04;11.10;;;6.78;;
56343;SDS011;42245;42.058;24.700;2023-07-22T06:30:30;15.00;;;6.72;;
56343;SDS011;42245;42.058;24.700;2023-07-22T06:32:55;12.23;;;6.40;;
56343;SDS011;42245;42.058;24.700;2023-07-22T06:35:21;11.23;;;6.60;;
56343;SDS011;42245;42.058;24.700;2023-07-22T06:37:46;12.77;;;6.80;;
56343;SDS011;42245;42.058;24.700;2023-07-22T06:40:11;15.68;;;7.32;;
56343;SDS011;42245;42.058;24.700;2023-07-22T06:42:37;13.07;;;7.10;;
56343;SDS011;42245;42.058;24.700;2023-07-22T06:45:02;15.40;;;7.22;;
56343;SDS011;42245;42.058;24.700;2023-07-22T06:47:28;12.13;;;6.43;;
56343;SDS011;42245;42.058;24.700;2023-07-22T06:49:53;12.93;;;7.18;;
56343;SDS011;42245;42.058;24.700;2023-07-22T06:52:19;23.48;;;7.07;;
56343;SDS011;42245;42.058;24.700;2023-07-22T06:54:44;8.98;;;6.80;;
56343;SDS011;42245;42.058;24.700;2023-07-22T06:57:10;14.40;;;7.60;;
56343;SDS011;42245;42.058;24.700;2023-07-22T06:59:36;12.13;;;6.78;;
56343;SDS011;42245;42.058;24.700;2023-07-22T07:02:02;11.38;;;7.10;;
56343;SDS011;42245;42.058;24.700;2023-07-22T07:04:29;12.23;;;6.97;;
56343;SDS011;42245;42.058;24.700;2023-07-22T07:06:55;13.95;;;7.20;;
56343;SDS011;42245;42.058;24.700;2023-07-22T07:09:20;19.00;;;7.75;;
56343;SDS011;42245;42.058;24.700;2023-07-22T07:11:46;10.82;;;6.88;;
56343;SDS011;42245;42.058;24.700;2023-07-22T07:14:11;11.18;;;7.07;;
56343;SDS011;42245;42.058;24.700;2023-07-22T07:16:37;9.90;;;6.95;;
56343;SDS011;42245;42.058;24.700;2023-07-22T07:19:03;15.02;;;7.38;;
56343;SDS011;42245;42.058;24.700;2023-07-22T07:21:28;15.27;;;7.43;;
56343;SDS011;42245;42.058;24.700;2023-07-22T07:23:54;11.38;;;7.28;;
56343;SDS011;42245;42.058;24.700;2023-07-22T07:26:20;10.38;;;7.15;;
56343;SDS011;42245;42.058;24.700;2023-07-22T07:28:46;13.85;;;7.50;;
56343;SDS011;42245;42.058;24.700;2023-07-22T07:31:12;11.93;;;6.80;;
56343;SDS011;42245;42.058;24.700;2023-07-22T07:33:38;14.05;;;7.35;;
56343;SDS011;42245;42.058;24.700;2023-07-22T07:36:03;17.10;;;7.10;;
56343;SDS011;42245;42.058;24.700;2023-07-22T07:38:29;12.30;;;7.97;;
56343;SDS011;42245;42.058;24.700;2023-07-22T07:41:04;8.73;;;7.05;;
56343;SDS011;42245;42.058;24.700;2023-07-22T07:43:33;13.80;;;8.05;;
56343;SDS011;42245;42.058;24.700;2023-07-22T07:46:15;12.98;;;7.68;;
56343;SDS011;42245;42.058;24.700;2023-07-22T07:48:46;10.52;;;7.80;;
56343;SDS011;42245;42.058;24.700;2023-07-22T07:51:13;9.93;;;7.22;;
56343;SDS011;42245;42.058;24.700;2023-07-22T07:53:39;14.68;;;7.60;;
56343;SDS011;42245;42.058;24.700;2023-07-22T07:56:06;18.10;;;8.00;;
56343;SDS011;42245;42.058;24.700;2023-07-22T07:58:31;11.10;;;7.47;;
56343;SDS011;42245;42.058;24.700;2023-07-22T08:00:57;11.95;;;8.13;;
56343;SDS011;42245;42.058;24.700;2023-07-22T08:03:23;14.45;;;8.02;;
56343;SDS011;42245;42.058;24.700;2023-07-22T08:05:48;15.32;;;7.88;;
56343;SDS011;42245;42.058;24.700;2023-07-22T08:08:14;13.10;;;7.47;;
56343;SDS011;42245;42.058;24.700;2023-07-22T08:10:39;14.27;;;7.85;;
56343;SDS011;42245;42.058;24.700;2023-07-22T08:13:05;14.25;;;8.15;;
56343;SDS011;42245;42.058;24.700;2023-07-22T08:15:31;12.85;;;7.93;;
56343;SDS011;42245;42.058;24.700;2023-07-22T08:17:56;14.15;;;7.75;;
56343;SDS011;42245;42.058;24.700;2023-07-22T08:20:22;13.80;;;7.70;;
56343;SDS011;42245;42.058;24.700;2023-07-22T08:22:48;13.30;;;8.40;;
56343;SDS011;42245;42.058;24.700;2023-07-22T08:25:14;14.27;;;8.07;;
56343;SDS011;42245;42.058;24.700;2023-07-22T08:27:39;15.10;;;8.30;;
56343;SDS011;42245;42.058;24.700;2023-07-22T08:30:04;11.60;;;7.88;;
56343;SDS011;42245;42.058;24.700;2023-07-22T08:32:30;13.50;;;7.72;;
56343;SDS011;42245;42.058;24.700;2023-07-22T08:34:56;15.13;;;8.38;;
56343;SDS011;42245;42.058;24.700;2023-07-22T08:37:21;16.75;;;8.20;;
56343;SDS011;42245;42.058;24.700;2023-07-22T08:39:46;15.63;;;8.15;;
56343;SDS011;42245;42.058;24.700;2023-07-22T08:42:12;13.52;;;7.63;;
56343;SDS011;42245;42.058;24.700;2023-07-22T08:44:38;15.45;;;7.72;;
56343;SDS011;42245;42.058;24.700;2023-07-22T08:47:08;16.48;;;7.78;;
56343;SDS011;42245;42.058;24.700;2023-07-22T08:49:37;13.55;;;7.97;;
56343;SDS011;42245;42.058;24.700;2023-07-22T08:52:04;12.50;;;7.28;;
56343;SDS011;42245;42.058;24.700;2023-07-22T08:54:29;15.35;;;8.43;;
56343;SDS011;42245;42.058;24.700;2023-07-22T08:56:55;19.02;;;8.48;;
56343;SDS011;42245;42.058;24.700;2023-07-22T08:59:20;14.85;;;8.02;;
56343;SDS011;42245;42.058;24.700;2023-07-22T09:01:47;11.68;;;7.45;;
56343;SDS011;42245;42.058;24.700;2023-07-22T09:04:13;12.82;;;7.60;;
56343;SDS011;42245;42.058;24.700;2023-07-22T09:06:39;13.65;;;7.97;;
56343;SDS011;42245;42.058;24.700;2023-07-22T09:09:07;15.57;;;7.78;;
56343;SDS011;42245;42.058;24.700;2023-07-22T09:11:34;14.95;;;7.63;;
56343;SDS011;42245;42.058;24.700;2023-07-22T09:13:59;14.63;;;8.35;;
56343;SDS011;42245;42.058;24.700;2023-07-22T09:16:26;11.27;;;7.85;;
56343;SDS011;42245;42.058;24.700;2023-07-22T09:18:54;16.98;;;8.32;;
56343;SDS011;42245;42.058;24.700;2023-07-22T09:21:20;14.93;;;7.88;;
56343;SDS011;42245;42.058;24.700;2023-07-22T09:23:46;15.70;;;7.93;;
56343;SDS011;42245;42.058;24.700;2023-07-22T09:26:12;16.25;;;7.53;;
56343;SDS011;42245;42.058;24.700;2023-07-22T09:28:51;13.82;;;7.38;;
56343;SDS011;42245;42.058;24.700;2023-07-22T09:31:17;19.23;;;7.90;;
56343;SDS011;42245;42.058;24.700;2023-07-22T09:33:43;14.73;;;7.60;;
56343;SDS011;42245;42.058;24.700;2023-07-22T09:36:09;12.40;;;7.32;;
56343;SDS011;42245;42.058;24.700;2023-07-22T09:38:36;10.77;;;7.63;;
56343;SDS011;42245;42.058;24.700;2023-07-22T09:41:01;15.43;;;7.50;;
56343;SDS011;42245;42.058;24.700;2023-07-22T09:43:27;13.25;;;7.97;;
56343;SDS011;42245;42.058;24.700;2023-07-22T09:45:52;18.92;;;7.60;;
56343;SDS011;42245;42.058;24.700;2023-07-22T09:48:20;15.23;;;7.68;;
56343;SDS011;42245;42.058;24.700;2023-07-22T09:50:46;11.95;;;7.65;;
56343;SDS011;42245;42.058;24.700;2023-07-22T09:53:21;13.75;;;7.75;;
56343;SDS011;42245;42.058;24.700;2023-07-22T09:55:46;16.17;;;8.32;;
56343;SDS011;42245;42.058;24.700;2023-07-22T09:58:12;15.02;;;8.00;;
56343;SDS011;42245;42.058;24.700;2023-07-22T10:00:39;12.32;;;7.70;;
56343;SDS011;42245;42.058;24.700;2023-07-22T10:03:09;12.45;;;7.30;;
56343;SDS011;42245;42.058;24.700;2023-07-22T10:05:37;13.30;;;7.72;;
56343;SDS011;42245;42.058;24.700;2023-07-22T10:08:04;15.93;;;7.53;;
56343;SDS011;42245;42.058;24.700;2023-07-22T10:10:32;13.93;;;8.35;;
56343;SDS011;42245;42.058;24.700;2023-07-22T10:12:59;12.50;;;7.35;;
56343;SDS011;42245;42.058;24.700;2023-07-22T10:15:25;14.10;;;7.18;;
56343;SDS011;42245;42.058;24.700;2023-07-22T10:17:53;13.40;;;7.43;;
56343;SDS011;42245;42.058;24.700;2023-07-22T10:20:20;11.00;;;7.65;;
56343;SDS011;42245;42.058;24.700;2023-07-22T10:22:47;12.27;;;8.30;;
56343;SDS011;42245;42.058;24.700;2023-07-22T10:25:13;16.35;;;7.68;;
56343;SDS011;42245;42.058;24.700;2023-07-22T10:27:40;17.15;;;7.60;;
56343;SDS011;42245;42.058;24.700;2023-07-22T10:30:10;15.02;;;7.90;;
56343;SDS011;42245;42.058;24.700;2023-07-22T10:32:40;19.42;;;8.10;;
56343;SDS011;42245;42.058;24.700;2023-07-22T10:38:17;19.77;;;7.90;;
56343;SDS011;42245;42.058;24.700;2023-07-22T10:43:18;15.10;;;7.80;;
56343;SDS011;42245;42.058;24.700;2023-07-22T10:45:53;16.25;;;7.78;;
56343;SDS011;42245;42.058;24.700;2023-07-22T10:48:25;17.10;;;7.50;;
56343;SDS011;42245;42.058;24.700;2023-07-22T10:50:53;14.48;;;7.65;;
56343;SDS011;42245;42.058;24.700;2023-07-22T10:58:36;16.90;;;7.75;;
56343;SDS011;42245;42.058;24.700;2023-07-22T11:11:57;17.02;;;7.13;;
56343;SDS011;42245;42.058;24.700;2023-07-22T11:14:24;13.70;;;7.20;;
56343;SDS011;42245;42.058;24.700;2023-07-22T11:16:51;14.75;;;7.38;;
56343;SDS011;42245;42.058;24.700;2023-07-22T11:19:17;15.98;;;7.45;;
56343;SDS011;42245;42.058;24.700;2023-07-22T11:21:46;14.95;;;6.90;;
56343;SDS011;42245;42.058;24.700;2023-07-22T11:24:12;17.38;;;7.10;;
56343;SDS011;42245;42.058;24.700;2023-07-22T11:26:39;18.52;;;7.93;;
56343;SDS011;42245;42.058;24.700;2023-07-22T11:29:05;17.30;;;7.45;;
56343;SDS011;42245;42.058;24.700;2023-07-22T11:31:32;13.48;;;7.85;;
56343;SDS011;42245;42.058;24.700;2023-07-22T11:34:08;18.27;;;7.88;;
56343;SDS011;42245;42.058;24.700;2023-07-22T11:36:34;16.08;;;7.93;;
56343;SDS011;42245;42.058;24.700;2023-07-22T11:39:10;19.05;;;8.73;;
56343;SDS011;42245;42.058;24.700;2023-07-22T11:41:37;18.08;;;7.68;;
56343;SDS011;42245;42.058;24.700;2023-07-22T11:44:03;19.33;;;8.05;;
56343;SDS011;42245;42.058;24.700;2023-07-22T11:49:37;17.17;;;7.93;;
56343;SDS011;42245;42.058;24.700;2023-07-22T11:52:04;12.70;;;7.90;;
56343;SDS011;42245;42.058;24.700;2023-07-22T11:54:32;16.50;;;8.25;;
56343;SDS011;42245;42.058;24.700;2023-07-22T11:57:20;18.98;;;8.18;;
56343;SDS011;42245;42.058;24.700;2023-07-22T11:59:51;20.45;;;8.60;;
56343;SDS011;42245;42.058;24.700;2023-07-22T12:04:44;20.23;;;7.80;;
56343;SDS011;42245;42.058;24.700;2023-07-22T12:07:24;17.90;;;8.25;;
56343;SDS011;42245;42.058;24.700;2023-07-22T12:09:51;16.88;;;7.93;;
56343;SDS011;42245;42.058;24.700;2023-07-22T12:12:17;29.92;;;8.27;;
56343;SDS011;42245;42.058;24.700;2023-07-22T12:14:43;17.58;;;7.85;;
56343;SDS011;42245;42.058;24.700;2023-07-22T12:17:08;23.30;;;8.18;;
56343;SDS011;42245;42.058;24.700;2023-07-22T12:19:34;20.27;;;7.72;;
56343;SDS011;42245;42.058;24.700;2023-07-22T12:22:00;17.77;;;8.30;;
56343;SDS011;42245;42.058;24.700;2023-07-22T12:24:26;14.98;;;8.10;;
56343;SDS011;42245;42.058;24.700;2023-07-22T12:26:52;21.02;;;8.02;;
56343;SDS011;42245;42.058;24.700;2023-07-22T12:29:17;16.90;;;7.95;;
56343;SDS011;42245;42.058;24.700;2023-07-22T12:31:43;22.88;;;8.23;;
56343;SDS011;42245;42.058;24.700;2023-07-22T12:34:08;17.98;;;7.70;;
56343;SDS011;42245;42.058;24.700;2023-07-22T12:36:33;15.60;;;7.57;;
56343;SDS011;42245;42.058;24.700;2023-07-22T12:38:59;16.77;;;7.60;;
56343;SDS011;42245;42.058;24.700;2023-07-22T12:41:24;19.50;;;7.68;;
56343;SDS011;42245;42.058;24.700;2023-07-22T12:43:50;18.20;;;8.20;;
56343;SDS011;42245;42.058;24.700;2023-07-22T12:46:15;17.55;;;7.80;;
56343;SDS011;42245;42.058;24.700;2023-07-22T12:48:41;18.52;;;7.78;;
56343;SDS011;42245;42.058;24.700;2023-07-22T12:51:06;20.10;;;8.38;;
56343;SDS011;42245;42.058;24.700;2023-07-22T12:53:31;24.33;;;8.30;;
56343;SDS011;42245;42.058;24.700;2023-07-22T12:55:57;20.85;;;7.22;;
56343;SDS011;42245;42.058;24.700;2023-07-22T12:58:22;15.43;;;7.45;;
56343;SDS011;42245;42.058;24.700;2023-07-22T13:00:48;20.02;;;7.30;;
56343;SDS011;42245;42.058;24.700;2023-07-22T13:03:13;12.70;;;7.45;;
56343;SDS011;42245;42.058;24.700;2023-07-22T13:05:39;18.85;;;7.38;;
56343;SDS011;42245;42.058;24.700;2023-07-22T13:08:04;18.30;;;7.35;;
56343;SDS011;42245;42.058;24.700;2023-07-22T13:10:30;14.15;;;7.38;;
56343;SDS011;42245;42.058;24.700;2023-07-22T13:13:01;21.55;;;7.78;;
56343;SDS011;42245;42.058;24.700;2023-07-22T13:15:26;15.95;;;7.15;;
56343;SDS011;42245;42.058;24.700;2023-07-22T13:17:52;18.63;;;7.55;;
56343;SDS011;42245;42.058;24.700;2023-07-22T13:20:17;23.40;;;7.65;;
56343;SDS011;42245;42.058;24.700;2023-07-22T13:22:42;19.52;;;8.18;;
56343;SDS011;42245;42.058;24.700;2023-07-22T13:25:08;29.05;;;7.30;;
56343;SDS011;42245;42.058;24.700;2023-07-22T13:27:36;15.57;;;7.07;;
56343;SDS011;42245;42.058;24.700;2023-07-22T13:30:05;22.55;;;7.53;;
56343;SDS011;42245;42.058;24.700;2023-07-22T13:32:33;18.35;;;7.20;;
56343;SDS011;42245;42.058;24.700;2023-07-22T13:34:59;24.27;;;8.00;;
56343;SDS011;42245;42.058;24.700;2023-07-22T13:37:24;17.60;;;6.95;;
56343;SDS011;42245;42.058;24.700;2023-07-22T13:39:50;15.23;;;6.70;;
56343;SDS011;42245;42.058;24.700;2023-07-22T13:42:15;21.45;;;6.90;;
56343;SDS011;42245;42.058;24.700;2023-07-22T13:44:40;24.80;;;7.00;;
56343;SDS011;42245;42.058;24.700;2023-07-22T13:47:06;27.52;;;6.95;;
56343;SDS011;42245;42.058;24.700;2023-07-22T13:49:31;20.20;;;7.00;;
56343;SDS011;42245;42.058;24.700;2023-07-22T13:51:56;26.08;;;6.53;;
56343;SDS011;42245;42.058;24.700;2023-07-22T13:54:22;25.98;;;6.63;;
56343;SDS011;42245;42.058;24.700;2023-07-22T13:56:47;24.42;;;6.57;;
56343;SDS011;42245;42.058;24.700;2023-07-22T13:59:13;31.95;;;7.28;;
56343;SDS011;42245;42.058;24.700;2023-07-22T14:01:39;20.60;;;6.90;;
56343;SDS011;42245;42.058;24.700;2023-07-22T14:04:04;31.13;;;7.50;;
56343;SDS011;42245;42.058;24.700;2023-07-22T14:06:30;21.73;;;6.50;;
56343;SDS011;42245;42.058;24.700;2023-07-22T14:08:56;22.85;;;6.40;;
56343;SDS011;42245;42.058;24.700;2023-07-22T14:11:21;22.48;;;6.32;;
56343;SDS011;42245;42.058;24.700;2023-07-22T14:13:46;19.05;;;6.30;;
56343;SDS011;42245;42.058;24.700;2023-07-22T14:16:12;26.35;;;6.82;;
56343;SDS011;42245;42.058;24.700;2023-07-22T14:18:37;27.58;;;6.68;;
56343;SDS011;42245;42.058;24.700;2023-07-22T14:21:03;24.27;;;6.90;;
56343;SDS011;42245;42.058;24.700;2023-07-22T14:23:28;27.80;;;6.30;;
56343;SDS011;42245;42.058;24.700;2023-07-22T14:25:53;22.42;;;7.05;;
56343;SDS011;42245;42.058;24.700;2023-07-22T14:28:19;25.60;;;7.22;;
56343;SDS011;42245;42.058;24.700;2023-07-22T14:30:44;27.17;;;7.00;;
56343;SDS011;42245;42.058;24.700;2023-07-22T14:33:09;27.15;;;7.00;;
56343;SDS011;42245;42.058;24.700;2023-07-22T14:35:35;24.77;;;6.88;;
56343;SDS011;42245;42.058;24.700;2023-07-22T14:38:01;21.30;;;6.70;;
56343;SDS011;42245;42.058;24.700;2023-07-22T14:40:26;34.28;;;7.70;;
56343;SDS011;42245;42.058;24.700;2023-07-22T14:42:52;24.00;;;7.07;;
56343;SDS011;42245;42.058;24.700;2023-07-22T14:45:17;26.05;;;6.60;;